Ocean Defender — WDG5405 — position and weather

sailwx.info

Track history (hours):
 
Tides and Currents Weather Stations Pressure Air Temp Water Temp Dewpoint Dewpoint Depression Visibility Wind Speed Wind Dir Waves Ship Positions

Ocean Defender

Owner: Marine Spill Response Corporation, Long Beach, CA. More information available from US FCC via Universal Licensing System and Coast Guard Vessel Documentation Center.

Last reported at 2018-Feb-25 04:53 UTC. Time now 2018-Feb-25 08:02 UTC.
Position N 34°28' W 120°17'.

Length 20 m; draft 3 m.

Type: Pollution control. MMSI: 367546320.

Date/timePositionNaut miles runAvg speedWind from/ knotsBaromVisibWave heightAir tempDewpointWater temp
2018-Feb-25 04:53N 34°28' W 120°17'0 0.0
2018-Feb-25 04:17N 34°28' W 120°17'0 0.0
2018-Feb-25 02:41N 34°28' W 120°17'0 0.1
2018-Feb-25 02:20N 34°28' W 120°17'0 0.0
2018-Feb-25 00:46N 34°28' W 120°17'0 0.0
2018-Feb-25 00:22N 34°28' W 120°17'0 0.0
2018-Feb-24 23:07N 34°28' W 120°17'0 0.1
2018-Feb-24 22:43N 34°28' W 120°17'0 0.0
2018-Feb-24 22:19N 34°28' W 120°17'0 0.0
2018-Feb-24 21:14N 34°28' W 120°17'0 0.0
2018-Feb-24 20:50N 34°28' W 120°17'1 4.2
2018-Feb-24 20:30N 34°27' W 120°16'1 1.5
2018-Feb-24 19:59N 34°27' W 120°17'1 1.3
2018-Feb-24 19:28N 34°27' W 120°18'1 1.4
2018-Feb-24 18:54N 34°27' W 120°19'1 3.3
2018-Feb-24 18:30N 34°27' W 120°20'1 3.0
2018-Feb-24 18:00N 34°27' W 120°22'2 4.9
2018-Feb-24 17:30N 34°27' W 120°19'1 0.2
2018-Feb-24 11:55N 34°28' W 120°18'0 0.0
2018-Feb-24 11:25N 34°28' W 120°18'0 0.0
2018-Feb-24 10:10N 34°28' W 120°18'0 0.1
2018-Feb-24 09:49N 34°28' W 120°18'0 0.0
2018-Feb-24 09:13N 34°28' W 120°18'0 0.0
2018-Feb-24 08:46N 34°28' W 120°18'0 0.1
2018-Feb-24 08:10N 34°28' W 120°18'0 0.0
2018-Feb-24 07:43N 34°28' W 120°18'0 0.0
2018-Feb-24 07:28N 34°28' W 120°18'0 0.0
2018-Feb-24 06:25N 34°28' W 120°18'0 0.0
2018-Feb-24 05:52N 34°28' W 120°18'0 0.0
2018-Feb-24 04:31N 34°28' W 120°18'0 0.0
2018-Feb-24 04:19N 34°28' W 120°18'0 0.0
2018-Feb-24 03:49N 34°28' W 120°18'0 0.0
2018-Feb-24 01:55N 34°28' W 120°18'0 0.0
2018-Feb-23 23:25N 34°28' W 120°18'0 0.0
2018-Feb-23 22:49N 34°28' W 120°18'0 0.0
2018-Feb-23 22:28N 34°28' W 120°18'0 0.0
2018-Feb-23 20:58N 34°28' W 120°18'0 0.0
2018-Feb-23 19:52N 34°28' W 120°18'0 0.0
2018-Feb-23 19:22N 34°28' W 120°18'0 0.0
2018-Feb-23 16:58N 34°28' W 120°18'0 0.0
2018-Feb-23 12:31N 34°28' W 120°18'0 0.0
2018-Feb-23 11:04N 34°28' W 120°18'0 0.1
2018-Feb-23 10:52N 34°28' W 120°18'0 0.0
2018-Feb-23 10:28N 34°28' W 120°18'0 0.0
2018-Feb-23 08:37N 34°28' W 120°18'0 0.0
2018-Feb-23 08:19N 34°28' W 120°18'0 0.0
2018-Feb-23 06:22N 34°28' W 120°18'0 0.0
2018-Feb-23 05:55N 34°28' W 120°18'0 0.0
2018-Feb-23 03:22N 34°28' W 120°18'0 0.0
2018-Feb-23 02:58N 34°28' W 120°18'0 0.0
2018-Feb-22 23:46N 34°28' W 120°18'0 0.1
2018-Feb-22 23:28N 34°28' W 120°18'0 0.0
2018-Feb-22 17:40N 34°28' W 120°18'0 0.2
2018-Feb-22 17:25N 34°28' W 120°18'0 0.0
2018-Feb-22 16:49N 34°28' W 120°18'0 0.0
2018-Feb-22 12:52N 34°28' W 120°18'0 0.0
2018-Feb-22 12:22N 34°28' W 120°18'0 0.0
2018-Feb-22 09:43N 34°28' W 120°18'0 0.2
2018-Feb-22 09:25N 34°28' W 120°18'0 0.0
2018-Feb-22 08:43N 34°28' W 120°18'0 0.0
2018-Feb-22 08:28N 34°28' W 120°18'0 0.1
2018-Feb-22 07:58N 34°28' W 120°18'0 0.0
2018-Feb-22 07:19N 34°28' W 120°18'0 0.0
2018-Feb-22 06:40N 34°28' W 120°18'0 0.0
2018-Feb-22 06:22N 34°28' W 120°18'0 0.0
2018-Feb-22 05:22N 34°28' W 120°18'0 0.0
2018-Feb-22 04:52N 34°28' W 120°18'0 0.0
2018-Feb-21 21:39N 34°28' W 120°18'0 0.1
2018-Feb-21 21:20N 34°28' W 120°18'2 4.7
2018-Feb-21 21:00N 34°27' W 120°16'0 0.9
2018-Feb-21 20:30N 34°27' W 120°17'1 1.4
2018-Feb-21 19:58N 34°27' W 120°18'1 1.2
2018-Feb-21 19:30N 34°28' W 120°18'0 1.0
2018-Feb-21 19:00N 34°28' W 120°18'0 0.1
2018-Feb-21 15:54N 34°28' W 120°18'0 0.0
2018-Feb-21 12:09N 34°28' W 120°18'0 0.0
2018-Feb-21 12:00N 34°28' W 120°18'0 0.1
2018-Feb-21 11:18N 34°28' W 120°18'0 0.1
2018-Feb-21 10:27N 34°28' W 120°18'0 0.0
2018-Feb-21 06:03N 34°28' W 120°18'0 0.0
2018-Feb-21 04:57N 34°28' W 120°18'0 0.1
2018-Feb-21 04:15N 34°28' W 120°18'0 0.0
2018-Feb-21 03:57N 34°28' W 120°18'0 0.0
2018-Feb-21 02:18N 34°28' W 120°18'0 0.0
2018-Feb-21 01:51N 34°28' W 120°18'0 0.0
2018-Feb-21 00:52N 34°28' W 120°18'0 0.0
2018-Feb-20 23:41N 34°28' W 120°18'0 0.0
2018-Feb-20 23:14N 34°28' W 120°18'0 0.0
2018-Feb-20 22:14N 34°28' W 120°18'0 0.1
2018-Feb-20 21:57N 34°28' W 120°18'3 6.5
2018-Feb-20 21:30N 34°27' W 120°21'713.5
2018-Feb-20 20:59N 34°27' W 120°12'918.9
2018-Feb-20 20:30N 34°24' W 120°02'916.8
2018-Feb-20 19:59N 34°23' W 119°51'817.2
2018-Feb-20 19:30N 34°23' W 119°42'1 0.1
2018-Feb-20 02:35N 34°24' W 119°41'0 0.0
2018-Feb-20 02:05N 34°24' W 119°41'0 0.0
2018-Feb-20 01:44N 34°24' W 119°41'0 0.0
2018-Feb-19 17:56N 34°24' W 119°41'0 0.0
2018-Feb-19 17:26N 34°24' W 119°41'0 0.0
2018-Feb-19 13:17N 34°24' W 119°41'0 0.0
2018-Feb-18 22:44N 34°24' W 119°41'0 0.0
2018-Feb-18 21:41N 34°24' W 119°41'0 0.0
2018-Feb-18 21:20N 34°24' W 119°41'0 0.0
2018-Feb-18 18:53N 34°24' W 119°41'0 0.0
2018-Feb-18 17:32N 34°24' W 119°41'0 0.0
2018-Feb-18 17:05N 34°24' W 119°41'0 0.0
2018-Feb-18 16:53N 34°24' W 119°41'0 0.0
2018-Feb-18 16:29N 34°24' W 119°41'0 0.0
2018-Feb-18 13:59N 34°24' W 119°41'0 0.0
2018-Feb-18 13:29N 34°24' W 119°41'0 0.0
2018-Feb-18 10:35N 34°24' W 119°41'0 0.0
2018-Feb-18 10:20N 34°24' W 119°41'0 0.0
2018-Feb-18 09:59N 34°24' W 119°41'0 0.0
2018-Feb-18 09:26N 34°24' W 119°41'0 0.0
2018-Feb-18 08:38N 34°24' W 119°41'0 0.0
2018-Feb-18 08:29N 34°24' W 119°41'0 0.0
2018-Feb-18 07:02N 34°24' W 119°41'0 0.0
2018-Feb-18 06:41N 34°24' W 119°41'0 0.0
2018-Feb-18 04:59N 34°24' W 119°41'0 0.0
2018-Feb-18 04:02N 34°24' W 119°41'0 0.0
2018-Feb-18 03:53N 34°24' W 119°41'0 0.0
2018-Feb-18 02:17N 34°24' W 119°41'0 0.0
2018-Feb-17 23:13N 34°24' W 119°41'0 0.0
2018-Feb-17 22:43N 34°24' W 119°41'0 0.0
2018-Feb-17 20:35N 34°24' W 119°41'0 0.0
2018-Feb-17 20:22N 34°24' W 119°41'0 0.0
2018-Feb-17 18:53N 34°24' W 119°41'0 0.0
2018-Feb-17 18:05N 34°24' W 119°41'0 0.0
2018-Feb-17 17:38N 34°24' W 119°41'0 0.0
2018-Feb-17 16:10N 34°24' W 119°41'0 0.0
2018-Feb-17 15:52N 34°24' W 119°41'0 0.0
2018-Feb-17 14:29N 34°24' W 119°41'0 0.0
2018-Feb-17 12:02N 34°24' W 119°41'0 0.0
2018-Feb-17 11:52N 34°24' W 119°41'0 0.0
2018-Feb-17 11:28N 34°24' W 119°41'0 0.0
2018-Feb-17 07:46N 34°24' W 119°41'0 0.0
2018-Feb-17 07:17N 34°24' W 119°41'0 0.0
2018-Feb-16 18:25N 34°24' W 119°41'0 0.0
2018-Feb-16 15:03N 34°24' W 119°41'0 0.0
2018-Feb-16 13:48N 34°24' W 119°41'0 0.0
2018-Feb-16 12:51N 34°24' W 119°41'0 0.0
2018-Feb-16 11:54N 34°24' W 119°41'0 0.0
2018-Feb-16 11:30N 34°24' W 119°41'0 0.0
2018-Feb-16 04:30N 34°24' W 119°41'0 0.0
2018-Feb-16 03:09N 34°24' W 119°41'0 0.0
2018-Feb-16 03:00N 34°24' W 119°41'0 0.0
2018-Feb-16 00:09N 34°24' W 119°41'0 0.0
2018-Feb-15 23:48N 34°24' W 119°41'0 0.0
2018-Feb-15 18:03N 34°24' W 119°41'0 0.0
2018-Feb-15 16:45N 34°24' W 119°41'0 0.0
2018-Feb-15 16:21N 34°24' W 119°41'0 0.0
2018-Feb-15 15:09N 34°24' W 119°41'0 0.0
2018-Feb-15 14:54N 34°24' W 119°41'0 0.0
2018-Feb-15 12:42N 34°24' W 119°41'0 0.0
2018-Feb-15 11:39N 34°24' W 119°41'0 0.0
2018-Feb-15 11:21N 34°24' W 119°41'0 0.0
2018-Feb-15 08:18N 34°24' W 119°41'  
Track history (hours):
 
Tides and Currents Weather Stations Pressure Air Temp Water Temp Dewpoint Dewpoint Depression Visibility Wind Speed Wind Dir Waves Ship Positions

Ocean Defender

Owner: Marine Spill Response Corporation, Long Beach, CA. More information available from US FCC via Universal Licensing System and Coast Guard Vessel Documentation Center.

Last reported at 2018-Feb-25 04:53 UTC. Time now 2018-Feb-25 08:02 UTC.
Position N 34°28' W 120°17'.

Length 20 m; draft 3 m.

Type: Pollution control. MMSI: 367546320.

Date/timePositionNaut miles runAvg speedWind from/ knotsBaromVisibWave heightAir tempDewpointWater temp
2018-Feb-25 04:53N 34°28' W 120°17'0 0.0
2018-Feb-25 04:17N 34°28' W 120°17'0 0.0
2018-Feb-25 02:41N 34°28' W 120°17'0 0.1
2018-Feb-25 02:20N 34°28' W 120°17'0 0.0
2018-Feb-25 00:46N 34°28' W 120°17'0 0.0
2018-Feb-25 00:22N 34°28' W 120°17'0 0.0
2018-Feb-24 23:07N 34°28' W 120°17'0 0.1
2018-Feb-24 22:43N 34°28' W 120°17'0 0.0
2018-Feb-24 22:19N 34°28' W 120°17'0 0.0
2018-Feb-24 21:14N 34°28' W 120°17'0 0.0
2018-Feb-24 20:50N 34°28' W 120°17'1 4.2
2018-Feb-24 20:30N 34°27' W 120°16'1 1.5
2018-Feb-24 19:59N 34°27' W 120°17'1 1.3
2018-Feb-24 19:28N 34°27' W 120°18'1 1.4
2018-Feb-24 18:54N 34°27' W 120°19'1 3.3
2018-Feb-24 18:30N 34°27' W 120°20'1 3.0
2018-Feb-24 18:00N 34°27' W 120°22'2 4.9
2018-Feb-24 17:30N 34°27' W 120°19'1 0.2
2018-Feb-24 11:55N 34°28' W 120°18'0 0.0
2018-Feb-24 11:25N 34°28' W 120°18'0 0.0
2018-Feb-24 10:10N 34°28' W 120°18'0 0.1
2018-Feb-24 09:49N 34°28' W 120°18'0 0.0
2018-Feb-24 09:13N 34°28' W 120°18'0 0.0
2018-Feb-24 08:46N 34°28' W 120°18'0 0.1
2018-Feb-24 08:10N 34°28' W 120°18'0 0.0
2018-Feb-24 07:43N 34°28' W 120°18'0 0.0
2018-Feb-24 07:28N 34°28' W 120°18'0 0.0
2018-Feb-24 06:25N 34°28' W 120°18'0 0.0
2018-Feb-24 05:52N 34°28' W 120°18'0 0.0
2018-Feb-24 04:31N 34°28' W 120°18'0 0.0
2018-Feb-24 04:19N 34°28' W 120°18'0 0.0
2018-Feb-24 03:49N 34°28' W 120°18'0 0.0
2018-Feb-24 01:55N 34°28' W 120°18'0 0.0
2018-Feb-23 23:25N 34°28' W 120°18'0 0.0
2018-Feb-23 22:49N 34°28' W 120°18'0 0.0
2018-Feb-23 22:28N 34°28' W 120°18'0 0.0
2018-Feb-23 20:58N 34°28' W 120°18'0 0.0
2018-Feb-23 19:52N 34°28' W 120°18'0 0.0
2018-Feb-23 19:22N 34°28' W 120°18'0 0.0
2018-Feb-23 16:58N 34°28' W 120°18'0 0.0
2018-Feb-23 12:31N 34°28' W 120°18'0 0.0
2018-Feb-23 11:04N 34°28' W 120°18'0 0.1
2018-Feb-23 10:52N 34°28' W 120°18'0 0.0
2018-Feb-23 10:28N 34°28' W 120°18'0 0.0
2018-Feb-23 08:37N 34°28' W 120°18'0 0.0
2018-Feb-23 08:19N 34°28' W 120°18'0 0.0
2018-Feb-23 06:22N 34°28' W 120°18'0 0.0
2018-Feb-23 05:55N 34°28' W 120°18'0 0.0
2018-Feb-23 03:22N 34°28' W 120°18'0 0.0
2018-Feb-23 02:58N 34°28' W 120°18'0 0.0
2018-Feb-22 23:46N 34°28' W 120°18'0 0.1
2018-Feb-22 23:28N 34°28' W 120°18'0 0.0
2018-Feb-22 17:40N 34°28' W 120°18'0 0.2
2018-Feb-22 17:25N 34°28' W 120°18'0 0.0
2018-Feb-22 16:49N 34°28' W 120°18'0 0.0
2018-Feb-22 12:52N 34°28' W 120°18'0 0.0
2018-Feb-22 12:22N 34°28' W 120°18'0 0.0
2018-Feb-22 09:43N 34°28' W 120°18'0 0.2
2018-Feb-22 09:25N 34°28' W 120°18'0 0.0
2018-Feb-22 08:43N 34°28' W 120°18'0 0.0
2018-Feb-22 08:28N 34°28' W 120°18'0 0.1
2018-Feb-22 07:58N 34°28' W 120°18'0 0.0
2018-Feb-22 07:19N 34°28' W 120°18'0 0.0
2018-Feb-22 06:40N 34°28' W 120°18'0 0.0
2018-Feb-22 06:22N 34°28' W 120°18'0 0.0
2018-Feb-22 05:22N 34°28' W 120°18'0 0.0
2018-Feb-22 04:52N 34°28' W 120°18'0 0.0
2018-Feb-21 21:39N 34°28' W 120°18'0 0.1
2018-Feb-21 21:20N 34°28' W 120°18'2 4.7
2018-Feb-21 21:00N 34°27' W 120°16'0 0.9
2018-Feb-21 20:30N 34°27' W 120°17'1 1.4
2018-Feb-21 19:58N 34°27' W 120°18'1 1.2
2018-Feb-21 19:30N 34°28' W 120°18'0 1.0
2018-Feb-21 19:00N 34°28' W 120°18'0 0.1
2018-Feb-21 15:54N 34°28' W 120°18'0 0.0
2018-Feb-21 12:09N 34°28' W 120°18'0 0.0
2018-Feb-21 12:00N 34°28' W 120°18'0 0.1
2018-Feb-21 11:18N 34°28' W 120°18'0 0.1
2018-Feb-21 10:27N 34°28' W 120°18'0 0.0
2018-Feb-21 06:03N 34°28' W 120°18'0 0.0
2018-Feb-21 04:57N 34°28' W 120°18'0 0.1
2018-Feb-21 04:15N 34°28' W 120°18'0 0.0
2018-Feb-21 03:57N 34°28' W 120°18'0 0.0
2018-Feb-21 02:18N 34°28' W 120°18'0 0.0
2018-Feb-21 01:51N 34°28' W 120°18'0 0.0
2018-Feb-21 00:52N 34°28' W 120°18'0 0.0
2018-Feb-20 23:41N 34°28' W 120°18'0 0.0
2018-Feb-20 23:14N 34°28' W 120°18'0 0.0
2018-Feb-20 22:14N 34°28' W 120°18'0 0.1
2018-Feb-20 21:57N 34°28' W 120°18'3 6.5
2018-Feb-20 21:30N 34°27' W 120°21'713.5
2018-Feb-20 20:59N 34°27' W 120°12'918.9
2018-Feb-20 20:30N 34°24' W 120°02'916.8
2018-Feb-20 19:59N 34°23' W 119°51'817.2
2018-Feb-20 19:30N 34°23' W 119°42'1 0.1
2018-Feb-20 02:35N 34°24' W 119°41'0 0.0
2018-Feb-20 02:05N 34°24' W 119°41'0 0.0
2018-Feb-20 01:44N 34°24' W 119°41'0 0.0
2018-Feb-19 17:56N 34°24' W 119°41'0 0.0
2018-Feb-19 17:26N 34°24' W 119°41'0 0.0
2018-Feb-19 13:17N 34°24' W 119°41'0 0.0
2018-Feb-18 22:44N 34°24' W 119°41'0 0.0
2018-Feb-18 21:41N 34°24' W 119°41'0 0.0
2018-Feb-18 21:20N 34°24' W 119°41'0 0.0
2018-Feb-18 18:53N 34°24' W 119°41'0 0.0
2018-Feb-18 17:32N 34°24' W 119°41'0 0.0
2018-Feb-18 17:05N 34°24' W 119°41'0 0.0
2018-Feb-18 16:53N 34°24' W 119°41'0 0.0
2018-Feb-18 16:29N 34°24' W 119°41'0 0.0
2018-Feb-18 13:59N 34°24' W 119°41'0 0.0
2018-Feb-18 13:29N 34°24' W 119°41'0 0.0
2018-Feb-18 10:35N 34°24' W 119°41'0 0.0
2018-Feb-18 10:20N 34°24' W 119°41'0 0.0
2018-Feb-18 09:59N 34°24' W 119°41'0 0.0
2018-Feb-18 09:26N 34°24' W 119°41'0 0.0
2018-Feb-18 08:38N 34°24' W 119°41'0 0.0
2018-Feb-18 08:29N 34°24' W 119°41'0 0.0
2018-Feb-18 07:02N 34°24' W 119°41'0 0.0
2018-Feb-18 06:41N 34°24' W 119°41'0 0.0
2018-Feb-18 04:59N 34°24' W 119°41'0 0.0
2018-Feb-18 04:02N 34°24' W 119°41'0 0.0
2018-Feb-18 03:53N 34°24' W 119°41'0 0.0
2018-Feb-18 02:17N 34°24' W 119°41'0 0.0
2018-Feb-17 23:13N 34°24' W 119°41'0 0.0
2018-Feb-17 22:43N 34°24' W 119°41'0 0.0
2018-Feb-17 20:35N 34°24' W 119°41'0 0.0
2018-Feb-17 20:22N 34°24' W 119°41'0 0.0
2018-Feb-17 18:53N 34°24' W 119°41'0 0.0
2018-Feb-17 18:05N 34°24' W 119°41'0 0.0
2018-Feb-17 17:38N 34°24' W 119°41'0 0.0
2018-Feb-17 16:10N 34°24' W 119°41'0 0.0
2018-Feb-17 15:52N 34°24' W 119°41'0 0.0
2018-Feb-17 14:29N 34°24' W 119°41'0 0.0
2018-Feb-17 12:02N 34°24' W 119°41'0 0.0
2018-Feb-17 11:52N 34°24' W 119°41'0 0.0
2018-Feb-17 11:28N 34°24' W 119°41'0 0.0
2018-Feb-17 07:46N 34°24' W 119°41'0 0.0
2018-Feb-17 07:17N 34°24' W 119°41'0 0.0
2018-Feb-16 18:25N 34°24' W 119°41'0 0.0
2018-Feb-16 15:03N 34°24' W 119°41'0 0.0
2018-Feb-16 13:48N 34°24' W 119°41'0 0.0
2018-Feb-16 12:51N 34°24' W 119°41'0 0.0
2018-Feb-16 11:54N 34°24' W 119°41'0 0.0
2018-Feb-16 11:30N 34°24' W 119°41'0 0.0
2018-Feb-16 04:30N 34°24' W 119°41'0 0.0
2018-Feb-16 03:09N 34°24' W 119°41'0 0.0
2018-Feb-16 03:00N 34°24' W 119°41'0 0.0
2018-Feb-16 00:09N 34°24' W 119°41'0 0.0
2018-Feb-15 23:48N 34°24' W 119°41'0 0.0
2018-Feb-15 18:03N 34°24' W 119°41'0 0.0
2018-Feb-15 16:45N 34°24' W 119°41'0 0.0
2018-Feb-15 16:21N 34°24' W 119°41'0 0.0
2018-Feb-15 15:09N 34°24' W 119°41'0 0.0
2018-Feb-15 14:54N 34°24' W 119°41'0 0.0
2018-Feb-15 12:42N 34°24' W 119°41'0 0.0
2018-Feb-15 11:39N 34°24' W 119°41'0 0.0
2018-Feb-15 11:21N 34°24' W 119°41'0 0.0
2018-Feb-15 08:18N 34°24' W 119°41'  

Dump ship's entire track history